Time;durP1;ratioP1;P1;durP2;ratioP2;P2;SDS_P1;SDS_P2;PMS_P1;PMS_P2;Temp;Humidity;BMP_temperature;BMP_pressure;BME280_temperature;BME280_humidity;BME280_pressure;Samples;Min_cycle;Max_cycle;Signal;HPM_P1;HPM_P2
2021/11/14 00:02:54;;;;;;;;;;;11.00;99.90;;;;;;8443693;28;19926;-72
2021/11/14 00:07:06;;;;;;;;;;;11.00;99.90;;;;;;8422118;28;19931;-72
2021/11/14 00:11:10;;;;;;;;;;;11.00;99.90;;;;;;8423570;28;20359;-72
2021/11/14 00:15:12;;;;;;;;;;;11.00;99.90;;;;;;8419596;28;20391;-72
2021/11/14 00:19:13;;;;;;;;;;;11.00;99.90;;;;;;8432138;28;19919;-72
2021/11/14 00:23:15;;;;;;;;;;;11.00;99.90;;;;;;8429473;28;19927;-72
2021/11/14 00:27:17;;;;;;;;;;;11.00;99.90;;;;;;8423430;28;19920;-73
2021/11/14 00:31:19;;;;;;;;;;;11.00;99.90;;;;;;8427839;28;20280;-72
2021/11/14 00:35:21;;;;;;;;;;;10.90;99.90;;;;;;8422226;28;19928;-73
2021/11/14 00:39:23;;;;;;;;;;;10.90;99.90;;;;;;8426919;28;19931;-73
2021/11/14 00:43:25;;;;;;;;;;;10.90;99.90;;;;;;8425138;28;19998;-72
2021/11/14 00:47:26;;;;;;;;;;;10.90;99.90;;;;;;8427640;28;19920;-72
2021/11/14 00:51:29;;;;;;;;;;;10.90;99.90;;;;;;8420716;28;19939;-73
2021/11/14 00:55:32;;;;;;;;;;;10.90;99.90;;;;;;8412949;28;19920;-72
2021/11/14 00:59:34;;;;;;;;;;;10.90;99.90;;;;;;8402628;28;20324;-73
2021/11/14 01:03:35;;;;;;;;;;;10.90;99.90;;;;;;8427437;28;19942;-73
2021/11/14 01:07:37;;;;;;;;;;;10.90;99.90;;;;;;8420228;28;19920;-73
2021/11/14 01:11:39;;;;;;;;;;;10.90;99.90;;;;;;8430526;28;19924;-73
2021/11/14 01:15:41;;;;;;;;;;;10.90;99.90;;;;;;8424239;28;20617;-72
2021/11/14 01:19:42;;;;;;;;;;;10.90;99.90;;;;;;8419768;28;19920;-73
2021/11/14 01:23:45;;;;;;;;;;;10.90;99.90;;;;;;8423122;28;19920;-73
2021/11/14 01:27:47;;;;;;;;;;;11.00;99.90;;;;;;8429478;28;19919;-73
2021/11/14 01:31:49;;;;;;;;;;;11.00;99.90;;;;;;8428086;27;19969;-73
2021/11/14 01:35:53;;;;;;;;;;;11.00;99.90;;;;;;8423568;28;19977;-73
2021/11/14 01:39:55;;;;;;;;;;;11.00;99.90;;;;;;8420482;28;19924;-73
2021/11/14 01:43:57;;;;;;;;;;;11.00;99.90;;;;;;8427837;28;19927;-73
2021/11/14 01:47:59;;;;;;;;;;;11.00;99.90;;;;;;8419546;28;19924;-72
2021/11/14 01:52:00;;;;;;;;;;;11.00;99.90;;;;;;8421179;28;19928;-73
2021/11/14 01:56:07;;;;;;;;;;;11.00;99.90;;;;;;8425146;28;19926;-72
2021/11/14 02:00:14;;;;;;;;;;;11.00;99.90;;;;;;8417218;28;19924;-72
2021/11/14 02:04:16;;;;;;;;;;;11.00;99.90;;;;;;8411891;28;20422;-72
2021/11/14 02:08:19;;;;;;;;;;;10.90;99.90;;;;;;8418691;28;19974;-72
2021/11/14 02:12:21;;;;;;;;;;;10.90;99.90;;;;;;8416692;28;19920;-72
2021/11/14 02:16:25;;;;;;;;;;;10.90;99.90;;;;;;8420963;28;19920;-72
2021/11/14 02:20:27;;;;;;;;;;;10.90;99.90;;;;;;8425703;28;20211;-73
2021/11/14 02:24:29;;;;;;;;;;;10.90;99.90;;;;;;8421029;28;19924;-72
2021/11/14 02:28:31;;;;;;;;;;;10.90;99.90;;;;;;8423842;28;19924;-72
2021/11/14 02:32:33;;;;;;;;;;;10.90;99.90;;;;;;8425744;28;19924;-72
2021/11/14 02:36:47;;;;;;;;;;;10.90;99.90;;;;;;8432551;28;19965;-72
2021/11/14 02:40:50;;;;;;;;;;;11.00;99.90;;;;;;8431000;28;20069;-72
2021/11/14 02:44:52;;;;;;;;;;;11.00;99.90;;;;;;8425694;28;20280;-72
2021/11/14 02:48:54;;;;;;;;;;;11.00;99.90;;;;;;8441607;27;20367;-72
2021/11/14 02:52:55;;;;;;;;;;;10.90;99.90;;;;;;8424458;28;20006;-72
2021/11/14 02:56:57;;;;;;;;;;;10.90;99.90;;;;;;8423069;28;19938;-73
2021/11/14 03:01:07;;;;;;;;;;;10.90;99.90;;;;;;8429291;28;20299;-72
2021/11/14 03:05:11;;;;;;;;;;;10.90;99.90;;;;;;8428568;28;19930;-73
2021/11/14 03:09:13;;;;;;;;;;;10.90;99.90;;;;;;8422095;28;19978;-72
2021/11/14 03:13:16;;;;;;;;;;;10.90;99.90;;;;;;8423923;28;19966;-73
2021/11/14 03:17:18;;;;;;;;;;;10.90;99.90;;;;;;8424893;28;19931;-73
2021/11/14 03:21:20;;;;;;;;;;;10.90;99.90;;;;;;8424758;28;19953;-73
2021/11/14 03:25:24;;;;;;;;;;;10.90;99.90;;;;;;8429912;28;19920;-73
2021/11/14 03:29:25;;;;;;;;;;;10.90;99.90;;;;;;8424164;28;19931;-72
2021/11/14 03:33:27;;;;;;;;;;;10.90;99.90;;;;;;8437376;28;19919;-73
2021/11/14 03:37:29;;;;;;;;;;;10.80;99.90;;;;;;8424288;28;19936;-72
2021/11/14 03:41:32;;;;;;;;;;;10.90;99.90;;;;;;8423664;28;19928;-72
2021/11/14 03:45:34;;;;;;;;;;;10.80;99.90;;;;;;8427383;28;20301;-73
2021/11/14 03:49:39;;;;;;;;;;;10.80;99.90;;;;;;8428273;28;19928;-72
2021/11/14 03:53:41;;;;;;;;;;;10.80;99.90;;;;;;8428263;28;19943;-72
2021/11/14 03:57:43;;;;;;;;;;;10.80;99.90;;;;;;8418134;28;19927;-73
2021/11/14 04:01:45;;;;;;;;;;;10.80;99.90;;;;;;8419304;28;19920;-73
2021/11/14 04:05:47;;;;;;;;;;;10.80;99.90;;;;;;8425495;28;20312;-72
2021/11/14 04:09:49;;;;;;;;;;;10.80;99.90;;;;;;8418945;28;19947;-73
2021/11/14 04:13:52;;;;;;;;;;;10.80;99.90;;;;;;8413598;28;20387;-73
2021/11/14 04:17:56;;;;;;;;;;;10.70;99.90;;;;;;8412642;28;20296;-72
2021/11/14 04:21:57;;;;;;;;;;;10.70;99.90;;;;;;8422461;28;19920;-72
2021/11/14 04:25:59;;;;;;;;;;;10.70;99.90;;;;;;8414336;28;20654;-72
2021/11/14 04:30:01;;;;;;;;;;;10.70;99.90;;;;;;8416501;28;19928;-72
2021/11/14 04:34:02;;;;;;;;;;;10.70;99.90;;;;;;8418152;28;19924;-72
2021/11/14 04:38:04;;;;;;;;;;;10.70;99.90;;;;;;8411267;28;19927;-73
2021/11/14 04:42:08;;;;;;;;;;;10.70;99.90;;;;;;8409803;28;19920;-72
2021/11/14 04:46:09;;;;;;;;;;;10.70;99.90;;;;;;8414144;28;19939;-73
2021/11/14 04:50:12;;;;;;;;;;;10.70;99.90;;;;;;8418187;28;19925;-73
2021/11/14 04:54:14;;;;;;;;;;;10.70;99.90;;;;;;8415556;28;19938;-73
2021/11/14 04:58:16;;;;;;;;;;;10.70;99.90;;;;;;8417230;28;19928;-73
2021/11/14 05:02:18;;;;;;;;;;;10.60;99.90;;;;;;8415312;28;20525;-72
2021/11/14 05:06:20;;;;;;;;;;;10.60;99.90;;;;;;8421650;28;19974;-72
2021/11/14 05:10:22;;;;;;;;;;;10.60;99.90;;;;;;8420771;28;19984;-73
2021/11/14 05:14:24;;;;;;;;;;;10.60;99.90;;;;;;8422123;28;20611;-73
2021/11/14 05:18:25;;;;;;;;;;;10.60;99.90;;;;;;8424584;28;19935;-72
2021/11/14 05:22:27;;;;;;;;;;;10.60;99.90;;;;;;8419857;28;20240;-73
2021/11/14 05:26:29;;;;;;;;;;;10.60;99.90;;;;;;8420748;28;19970;-73
2021/11/14 05:30:31;;;;;;;;;;;10.60;99.90;;;;;;8420111;28;19934;-73
2021/11/14 05:34:41;;;;;;;;;;;10.50;99.90;;;;;;8418571;28;20451;-73
2021/11/14 05:38:43;;;;;;;;;;;10.60;99.90;;;;;;8417761;28;19920;-73
2021/11/14 05:42:45;;;;;;;;;;;10.60;99.90;;;;;;8463674;27;19927;-73
2021/11/14 05:46:47;;;;;;;;;;;10.50;99.90;;;;;;8422806;28;19919;-74
2021/11/14 05:50:48;;;;;;;;;;;10.50;99.90;;;;;;8422101;28;19989;-72
2021/11/14 05:54:50;;;;;;;;;;;10.50;99.90;;;;;;8420356;28;19924;-74
2021/11/14 05:59:31;;;;;;;;;;;10.50;99.90;;;;;;8399492;28;19921;-72
2021/11/14 06:03:26;;;;;;;;;;;10.50;99.90;;;;;;8419306;28;19928;-73
2021/11/14 06:07:30;;;;;;;;;;;10.50;99.90;;;;;;8425125;28;19947;-73
2021/11/14 06:11:31;;;;;;;;;;;10.50;99.90;;;;;;8421858;28;19978;-73
2021/11/14 06:15:33;;;;;;;;;;;10.50;99.90;;;;;;8420569;28;19920;-73
2021/11/14 06:19:35;;;;;;;;;;;10.40;99.90;;;;;;8423859;28;19966;-73
2021/11/14 06:23:36;;;;;;;;;;;10.50;99.90;;;;;;8427408;28;19920;-73
2021/11/14 06:27:38;;;;;;;;;;;10.40;99.90;;;;;;8423401;28;19928;-73
2021/11/14 06:31:40;;;;;;;;;;;10.40;99.90;;;;;;8420236;28;19924;-72
2021/11/14 06:35:42;;;;;;;;;;;10.40;99.90;;;;;;8423032;28;19932;-73
2021/11/14 06:39:43;;;;;;;;;;;10.40;99.90;;;;;;8425859;28;19927;-73
2021/11/14 06:43:45;;;;;;;;;;;10.40;99.90;;;;;;8427008;28;19923;-73
2021/11/14 06:47:47;;;;;;;;;;;10.40;99.90;;;;;;8421416;28;19927;-72
2021/11/14 06:56:52;;;;;;;;;;;10.40;99.90;;;;;;8424178;28;20685;-73
2021/11/14 07:00:54;;;;;;;;;;;10.40;99.90;;;;;;8413421;28;19927;-73
2021/11/14 07:04:55;;;;;;;;;;;10.40;99.90;;;;;;8419655;28;19923;-73
2021/11/14 07:08:57;;;;;;;;;;;10.40;99.90;;;;;;8418443;28;19921;-74
2021/11/14 07:12:59;;;;;;;;;;;10.40;99.90;;;;;;8420336;28;20367;-73
2021/11/14 07:17:00;;;;;;;;;;;10.40;99.90;;;;;;8420678;28;19924;-72
2021/11/14 07:21:02;;;;;;;;;;;10.40;99.90;;;;;;8415227;28;19973;-73
2021/11/14 07:25:05;;;;;;;;;;;10.50;99.90;;;;;;8419202;28;19920;-73
2021/11/14 07:29:06;;;;;;;;;;;10.50;99.90;;;;;;8421665;28;19973;-72
2021/11/14 07:33:08;;;;;;;;;;;10.50;99.90;;;;;;8457242;27;19920;-72
2021/11/14 07:37:10;;;;;;;;;;;10.50;99.90;;;;;;8424128;28;19923;-72
2021/11/14 07:41:11;;;;;;;;;;;10.50;99.90;;;;;;8426224;28;19980;-73
2021/11/14 07:45:15;;;;;;;;;;;10.50;99.90;;;;;;8427223;28;19920;-73
2021/11/14 07:49:17;;;;;;;;;;;10.50;99.90;;;;;;8424681;28;20329;-73
2021/11/14 07:53:52;;;;;;;;;;;10.50;99.90;;;;;;8422410;28;19950;-73
2021/11/14 07:57:54;;;;;;;;;;;10.60;99.90;;;;;;8401287;28;20644;-73
2021/11/14 08:01:56;;;;;;;;;;;10.60;99.90;;;;;;8401826;28;20429;-73
2021/11/14 08:06:01;;;;;;;;;;;10.60;99.90;;;;;;8400816;28;20635;-73
2021/11/14 08:10:03;;;;;;;;;;;10.60;99.90;;;;;;8408871;27;19920;-73
2021/11/14 08:14:05;;;;;;;;;;;10.60;99.90;;;;;;8406011;28;19920;-74
2021/11/14 08:18:08;;;;;;;;;;;10.60;99.90;;;;;;8394992;28;19927;-73
2021/11/14 08:22:10;;;;;;;;;;;10.60;99.90;;;;;;8391061;28;19920;-73
2021/11/14 08:26:11;;;;;;;;;;;10.70;99.90;;;;;;8399486;28;19932;-73
2021/11/14 08:30:14;;;;;;;;;;;10.70;99.90;;;;;;8391034;28;19978;-74
2021/11/14 08:34:18;;;;;;;;;;;10.70;99.90;;;;;;8392945;28;20012;-73
2021/11/14 08:38:20;;;;;;;;;;;10.70;99.90;;;;;;8390472;28;19924;-73
2021/11/14 08:42:21;;;;;;;;;;;10.70;99.90;;;;;;8390559;28;19931;-74
2021/11/14 08:46:23;;;;;;;46.92;18.52;;;10.70;99.90;;;;;;8403148;28;19931;-73
2021/11/14 08:50:27;;;;;;;40.97;16.60;;;10.70;99.90;;;;;;8388299;28;20500;-73
2021/11/14 08:54:29;;;;;;;47.72;17.45;;;10.70;99.90;;;;;;8387902;28;20048;-73
2021/11/14 08:58:55;;;;;;;46.55;17.67;;;10.70;99.90;;;;;;8385291;28;20506;-73
2021/11/14 09:02:59;;;;;;;41.72;16.65;;;10.70;99.90;;;;;;8395204;28;20436;-73
2021/11/14 09:07:01;;;;;;;39.53;16.42;;;10.80;99.90;;;;;;8390694;28;20052;-73
2021/11/14 09:11:03;;;;;;;39.53;16.05;;;10.70;99.90;;;;;;8385989;28;20429;-73
2021/11/14 09:15:06;;;;;;;45.15;17.80;;;10.80;99.90;;;;;;8394063;28;20102;-73
2021/11/14 09:19:08;;;;;;;38.22;16.52;;;10.80;99.90;;;;;;8402117;28;20040;-73
2021/11/14 09:23:10;;;;;;;37.80;16.10;;;10.80;99.90;;;;;;8398947;28;20040;-73
2021/11/14 09:27:11;;;;;;;37.35;15.82;;;10.80;99.90;;;;;;8385212;28;20051;-73
2021/11/14 09:31:13;;;;;;;37.05;15.68;;;10.90;99.90;;;;;;8387792;28;20052;-73
2021/11/14 09:35:15;;;;;;;40.08;16.25;;;10.80;99.90;;;;;;8388073;28;20068;-73
2021/11/14 09:39:17;;;;;;;40.00;17.27;;;10.90;99.90;;;;;;8388242;28;20127;-73
2021/11/14 09:43:20;;;;;;;37.20;16.42;;;10.90;99.90;;;;;;8387117;28;20048;-73
2021/11/14 09:47:22;;;;;;;38.50;15.75;;;10.90;99.90;;;;;;8388842;28;20064;-73
2021/11/14 09:51:24;;;;;;;36.10;14.43;;;10.90;99.90;;;;;;8388531;28;20052;-73
2021/11/14 09:55:30;;;;;;;36.42;15.23;;;11.00;99.90;;;;;;8386037;28;20052;-72
2021/11/14 09:59:32;;;;;;;33.17;15.13;;;11.00;99.90;;;;;;8388479;28;20504;-73
2021/11/14 10:03:33;;;;;;;33.78;14.93;;;11.00;99.90;;;;;;8389916;28;20485;-73
2021/11/14 10:07:37;;;;;;;34.35;14.15;;;11.00;99.90;;;;;;8386379;28;20052;-73
2021/11/14 10:11:41;;;;;;;32.83;13.98;;;11.00;99.90;;;;;;8385795;28;20049;-73
2021/11/14 10:15:46;;;;;;;33.55;15.18;;;11.10;99.90;;;;;;8390254;28;20056;-73
2021/11/14 10:20:15;;;;;;;31.92;14.20;;;11.10;99.90;;;;;;8390945;28;20045;-73
2021/11/14 10:24:17;;;;;;;28.40;14.20;;;11.20;99.90;;;;;;8385068;28;20365;-73
2021/11/14 10:28:19;;;;;;;;;;;11.20;99.90;;;;;;8385824;28;20114;-73
2021/11/14 10:32:26;;;;;;;;;;;11.20;99.90;;;;;;8387643;28;19927;-73
2021/11/14 10:36:29;;;;;;;;;;;11.20;99.90;;;;;;8387066;28;20356;-73
2021/11/14 10:40:33;;;;;;;;;;;11.20;99.90;;;;;;8390090;28;19982;-73
2021/11/14 10:44:43;;;;;;;;;;;11.30;99.90;;;;;;8395182;28;19950;-73
2021/11/14 10:48:46;;;;;;;;;;;11.30;99.90;;;;;;8396222;28;19924;-72
2021/11/14 10:52:49;;;;;;;;;;;11.30;99.90;;;;;;8390762;28;19920;-73
2021/11/14 10:56:59;;;;;;;;;;;11.30;99.90;;;;;;8397877;28;19928;-73
2021/11/14 11:01:03;;;;;;;;;;;11.20;99.90;;;;;;8396195;28;19987;-73
2021/11/14 11:05:09;;;;;;;;;;;11.20;99.90;;;;;;8398767;28;19927;-73
2021/11/14 11:09:10;;;;;;;;;;;11.30;99.90;;;;;;8392847;28;19920;-73
2021/11/14 11:13:16;;;;;;;;;;;11.30;99.90;;;;;;8393797;28;20331;-73
2021/11/14 11:17:18;;;;;;;;;;;11.30;99.90;;;;;;8393424;28;19928;-73
2021/11/14 11:21:19;;;;;;;;;;;11.30;99.90;;;;;;8392033;28;20031;-73
2021/11/14 11:25:28;;;;;;;;;;;11.30;99.90;;;;;;8395684;28;19963;-73
2021/11/14 11:29:31;;;;;;;;;;;11.40;99.90;;;;;;8393368;28;19920;-72
2021/11/14 11:33:34;;;;;;;;;;;11.40;99.90;;;;;;8398490;28;19920;-73
2021/11/14 11:37:36;;;;;;;;;;;11.50;99.90;;;;;;8409168;27;20004;-72
2021/11/14 11:41:40;;;;;;;;;;;11.50;99.90;;;;;;8391031;28;19971;-73
2021/11/14 11:45:44;;;;;;;;;;;11.50;99.90;;;;;;8388789;28;19928;-73
2021/11/14 11:49:46;;;;;;;;;;;11.40;99.90;;;;;;8391668;28;20244;-73
2021/11/14 11:53:59;;;;;;;;;;;11.50;99.90;;;;;;8392294;28;19924;-73
2021/11/14 11:58:12;;;;;;;;;;;11.50;99.90;;;;;;8409300;28;19940;-73
2021/11/14 12:02:15;;;;;;;;;;;11.60;99.90;;;;;;8392845;28;20291;-73
2021/11/14 12:06:19;;;;;;;;;;;11.60;99.90;;;;;;8394033;28;19925;-73
2021/11/14 12:10:27;;;;;;;;;;;11.60;99.90;;;;;;8391374;28;20269;-73
2021/11/14 12:14:30;;;;;;;;;;;11.60;99.90;;;;;;8391529;28;19946;-73
2021/11/14 12:18:39;;;;;;;;;;;11.60;99.90;;;;;;8389300;28;20414;-73
2021/11/14 12:22:44;;;;;;;;;;;11.60;99.90;;;;;;8391469;28;20449;-73
2021/11/14 12:26:46;;;;;;;;;;;11.60;99.90;;;;;;8391301;28;19961;-73
2021/11/14 12:31:09;;;;;;;;;;;11.60;99.90;;;;;;8391658;28;19928;-73
2021/11/14 12:35:24;;;;;;;;;;;11.60;99.90;;;;;;8393197;28;19931;-73
2021/11/14 12:39:30;;;;;;;;;;;11.60;99.90;;;;;;8394894;28;20295;-73
2021/11/14 12:43:33;;;;;;;;;;;11.70;99.90;;;;;;8390781;28;20395;-73
2021/11/14 12:47:35;;;;;;;;;;;11.70;99.90;;;;;;8390795;28;20022;-73
2021/11/14 12:51:37;;;;;;;;;;;11.70;99.90;;;;;;8390178;28;19920;-73
2021/11/14 12:55:41;;;;;;;;;;;11.70;99.90;;;;;;8390790;28;19920;-73
2021/11/14 12:59:44;;;;;;;;;;;11.70;99.90;;;;;;8390319;28;19931;-73
2021/11/14 13:03:46;;;;;;;;;;;11.60;99.90;;;;;;8390091;28;19931;-73
2021/11/14 13:07:49;;;;;;;;;;;11.60;99.90;;;;;;8385900;28;20252;-73
2021/11/14 13:12:02;;;;;;;;;;;11.60;99.90;;;;;;8392831;28;19981;-73
2021/11/14 13:16:05;;;;;;;;;;;11.60;99.90;;;;;;8388151;28;20551;-73
2021/11/14 13:20:09;;;;;;;;;;;11.50;99.90;;;;;;8385247;28;20316;-73
2021/11/14 13:24:12;;;;;;;;;;;11.60;99.90;;;;;;8391610;28;20492;-73
2021/11/14 13:28:14;;;;;;;;;;;11.60;99.90;;;;;;8393982;28;19935;-74
2021/11/14 13:32:20;;;;;;;;;;;11.60;99.90;;;;;;8393124;28;20374;-74
2021/11/14 13:36:23;;;;;;;;;;;11.60;99.90;;;;;;8382555;28;20455;-73
2021/11/14 13:40:25;;;;;;;;;;;11.70;99.90;;;;;;8389203;28;20332;-74
2021/11/14 13:44:28;;;;;;;;;;;11.70;99.90;;;;;;8389324;28;19927;-73
2021/11/14 13:48:30;;;;;;;;;;;11.70;99.90;;;;;;8400086;28;20395;-73
2021/11/14 13:52:32;;;;;;;;;;;11.70;99.90;;;;;;8416631;27;19924;-74
2021/11/14 13:56:43;;;;;;;;;;;11.70;99.90;;;;;;8387570;28;19924;-73
2021/11/14 14:00:45;;;;;;;;;;;11.60;99.90;;;;;;8387367;28;19924;-74
2021/11/14 14:04:51;;;;;;;;;;;11.70;99.90;;;;;;8393733;28;19925;-74
2021/11/14 14:08:54;;;;;;;;;;;11.60;99.90;;;;;;8386356;28;19925;-73
2021/11/14 14:12:55;;;;;;;;;;;11.60;99.90;;;;;;8386882;28;19964;-74
2021/11/14 14:16:58;;;;;;;;;;;11.60;99.90;;;;;;8389262;28;19969;-74
2021/11/14 14:21:05;;;;;;;;;;;11.50;99.90;;;;;;8386528;28;20014;-73
2021/11/14 14:25:08;;;;;;;;;;;11.50;99.90;;;;;;8389494;28;19928;-74
2021/11/14 14:29:10;;;;;;;;;;;11.50;99.90;;;;;;8388512;28;20365;-73
2021/11/14 14:33:17;;;;;;;;;;;11.50;99.90;;;;;;8396333;28;19990;-73
2021/11/14 14:37:21;;;;;;;;;;;11.50;99.90;;;;;;8422534;27;20398;-73
2021/11/14 14:41:24;;;;;;;;;;;11.50;99.90;;;;;;8388106;28;19928;-73
2021/11/14 14:45:27;;;;;;;;;;;11.50;99.90;;;;;;8394378;28;19928;-73
2021/11/14 14:49:31;;;;;;;;;;;11.50;99.90;;;;;;8393155;28;20383;-73
2021/11/14 14:53:36;;;;;;;;;;;11.50;99.90;;;;;;8418699;27;19924;-73
2021/11/14 14:57:37;;;;;;;;;;;11.40;99.90;;;;;;8414640;27;19932;-73
2021/11/14 15:01:48;;;;;;;;;;;11.30;99.90;;;;;;8389339;28;19962;-73
2021/11/14 15:05:50;;;;;;;;;;;11.30;99.90;;;;;;8387251;28;19932;-73
2021/11/14 15:10:00;;;;;;;;;;;11.30;99.90;;;;;;8384149;28;19924;-73
2021/11/14 15:14:01;;;;;;;;;;;11.30;99.90;;;;;;8388604;28;19955;-73
2021/11/14 15:18:10;;;;;;;;;;;11.30;99.90;;;;;;8393016;28;20370;-73
2021/11/14 15:22:12;;;;;;;;;;;11.20;99.90;;;;;;8395407;28;19927;-74
2021/11/14 15:26:15;;;;;;;;;;;11.20;99.90;;;;;;8387534;28;19928;-73
2021/11/14 15:30:18;;;;;;;;;;;11.20;99.90;;;;;;8390889;28;20575;-73
2021/11/14 15:34:19;;;;;;;;;;;11.10;99.90;;;;;;8390306;28;19963;-74
2021/11/14 15:38:21;;;;;;;;;;;11.10;99.90;;;;;;8394523;28;19920;-73
2021/11/14 15:42:23;;;;;;;;;;;11.00;99.90;;;;;;8389604;28;20218;-73
2021/11/14 15:46:25;;;;;;;;;;;11.00;99.90;;;;;;8388952;28;19924;-73
2021/11/14 15:50:27;;;;;;;;;;;10.90;99.90;;;;;;8393688;28;19994;-73
2021/11/14 15:54:28;;;;;;;;;;;10.80;99.90;;;;;;8388738;28;20375;-73
2021/11/14 15:58:30;;;;;;;;;;;10.80;99.90;;;;;;8388248;28;19931;-73
2021/11/14 16:02:38;;;;;;;;;;;10.80;99.90;;;;;;8391415;28;20008;-73
2021/11/14 16:06:40;;;;;;;;;;;10.80;99.90;;;;;;8387928;28;20018;-73
2021/11/14 16:10:42;;;;;;;;;;;10.80;99.90;;;;;;8388466;28;19920;-73
2021/11/14 16:14:44;;;;;;;;;;;10.80;99.90;;;;;;8389493;28;19928;-73
2021/11/14 16:18:46;;;;;;;;;;;10.80;99.90;;;;;;8418783;27;19930;-73
2021/11/14 16:22:51;;;;;;;;;;;10.80;99.90;;;;;;8399392;28;20311;-72
2021/11/14 16:26:53;;;;;;;;;;;10.80;99.90;;;;;;8392591;28;19925;-73
2021/11/14 16:30:55;;;;;;;;;;;10.80;99.90;;;;;;8390885;28;19964;-72
2021/11/14 16:34:57;;;;;;;;;;;10.80;99.90;;;;;;8388576;28;19956;-72
2021/11/14 16:38:59;;;;;;;;;;;10.80;99.90;;;;;;8388169;28;19924;-73
2021/11/14 16:43:01;;;;;;;;;;;10.80;99.90;;;;;;8390323;28;19928;-72
2021/11/14 16:47:03;;;;;;;;;;;10.80;99.90;;;;;;8385149;28;20322;-73
2021/11/14 16:51:04;;;;;;;;;;;10.80;99.90;;;;;;8386816;28;20248;-72
2021/11/14 16:55:07;;;;;;;;;;;10.80;99.90;;;;;;8385317;28;19920;-72
2021/11/14 16:59:08;;;;;;;;;;;10.80;99.90;;;;;;8387138;28;20402;-73
2021/11/14 17:03:10;;;;;;;;;;;10.80;99.90;;;;;;8388249;28;19920;-72
2021/11/14 17:07:12;;;;;;;;;;;10.70;99.90;;;;;;8396212;28;19925;-72
2021/11/14 17:11:14;;;;;;;;;;;10.70;99.90;;;;;;8387507;28;19931;-73
2021/11/14 17:15:15;;;;;;;;;;;10.70;99.90;;;;;;8385017;28;20294;-72
2021/11/14 17:19:17;;;;;;;;;;;10.70;99.90;;;;;;8384280;28;19989;-72
2021/11/14 17:23:19;;;;;;;;;;;10.70;99.90;;;;;;8385436;28;19920;-73
2021/11/14 17:27:20;;;;;;;;;;;10.70;99.90;;;;;;8382849;28;20000;-71
2021/11/14 17:31:23;;;;;;;;;;;10.70;99.90;;;;;;8381421;28;19928;-72
2021/11/14 17:35:25;;;;;;;;;;;10.70;99.90;;;;;;8378374;28;20025;-72
2021/11/14 17:39:26;;;;;;;;;;;10.70;99.90;;;;;;8383922;28;19931;-72
2021/11/14 17:43:28;;;;;;;;;;;10.70;99.90;;;;;;8382273;28;19960;-72
2021/11/14 17:47:30;;;;;;;;;;;10.70;99.90;;;;;;8383875;28;19966;-73
2021/11/14 17:51:32;;;;;;;;;;;10.60;99.90;;;;;;8425273;27;19981;-72
2021/11/14 17:55:34;;;;;;;;;;;10.70;99.90;;;;;;8385988;28;19927;-72
2021/11/14 17:59:37;;;;;;;;;;;10.60;99.90;;;;;;8384421;28;19986;-72
2021/11/14 18:03:38;;;;;;;;;;;10.60;99.90;;;;;;8394410;28;20312;-72
2021/11/14 18:07:40;;;;;;;;;;;10.60;99.90;;;;;;8398334;28;20372;-72
2021/11/14 18:11:42;;;;;;;;;;;10.60;99.90;;;;;;8398671;28;19981;-72
2021/11/14 18:15:43;;;;;;;;;;;10.60;99.90;;;;;;8396059;28;19950;-72
2021/11/14 18:19:45;;;;;;;;;;;10.50;99.90;;;;;;8391748;28;20379;-72
2021/11/14 18:23:47;;;;;;;;;;;10.50;99.90;;;;;;8392775;28;19940;-72
2021/11/14 18:27:50;;;;;;;;;;;10.50;99.90;;;;;;8391329;28;20851;-72
2021/11/14 18:31:52;;;;;;;;;;;10.50;99.90;;;;;;8392666;28;20448;-72
2021/11/14 18:35:54;;;;;;;;;;;10.50;99.90;;;;;;8394305;28;20018;-72
2021/11/14 18:39:56;;;;;;;;;;;10.50;99.90;;;;;;8392267;28;19928;-72
2021/11/14 18:43:57;;;;;;;;;;;10.50;99.90;;;;;;8396056;28;20375;-72
2021/11/14 18:47:59;;;;;;;;;;;10.50;99.90;;;;;;8394563;28;19928;-72
2021/11/14 18:52:01;;;;;;;;;;;10.50;99.90;;;;;;8394601;28;19932;-72
2021/11/14 18:56:03;;;;;;;;;;;10.50;99.90;;;;;;8393474;28;19944;-72
2021/11/14 19:00:07;;;;;;;;;;;10.50;99.90;;;;;;8388358;28;19936;-72
2021/11/14 19:04:09;;;;;;;;;;;10.50;99.90;;;;;;8389128;28;19920;-72
2021/11/14 19:08:11;;;;;;;;;;;10.40;99.90;;;;;;8386710;28;20288;-72
2021/11/14 19:12:12;;;;;;;;;;;10.50;99.90;;;;;;8388978;28;19943;-72
2021/11/14 19:16:17;;;;;;;;;;;10.40;99.90;;;;;;8387625;28;19936;-72
2021/11/14 19:20:19;;;;;;;;;;;10.40;99.90;;;;;;8390497;28;19948;-72
2021/11/14 19:24:21;;;;;;;;;;;10.40;99.90;;;;;;8388757;28;20046;-72
2021/11/14 19:28:25;;;;;;;;;;;10.40;99.90;;;;;;8417194;27;19928;-72
2021/11/14 19:32:27;;;;;;;;;;;10.40;99.90;;;;;;8390081;28;19928;-72
2021/11/14 19:36:29;;;;;;;;;;;10.40;99.90;;;;;;8402928;28;19928;-72
2021/11/14 19:40:31;;;;;;;;;;;10.40;99.90;;;;;;8393218;28;19924;-72
2021/11/14 19:44:33;;;;;;;;;;;10.40;99.90;;;;;;8394572;28;19931;-72
2021/11/14 19:48:35;;;;;;;;;;;10.40;99.90;;;;;;8387469;28;20313;-72
2021/11/14 19:52:37;;;;;;;;;;;10.40;99.90;;;;;;8390001;28;20343;-72
2021/11/14 19:56:38;;;;;;;;;;;10.40;99.90;;;;;;8385986;28;19934;-72
2021/11/14 20:00:41;;;;;;;;;;;10.40;99.90;;;;;;8385950;28;19930;-72
2021/11/14 20:04:44;;;;;;;;;;;10.30;99.90;;;;;;8388926;28;20276;-72
2021/11/14 20:08:46;;;;;;;;;;;10.30;99.90;;;;;;8385591;28;19924;-72
2021/11/14 20:12:48;;;;;;;;;;;10.30;99.90;;;;;;8387717;28;19920;-72
2021/11/14 20:16:50;;;;;;;;;;;10.30;99.90;;;;;;8388149;28;19920;-72
2021/11/14 20:20:56;;;;;;;;;;;10.30;99.90;;;;;;8386462;28;19939;-72
2021/11/14 20:24:59;;;;;;;;;;;10.30;99.90;;;;;;8399919;28;20371;-72
2021/11/14 20:29:00;;;;;;;;;;;10.30;99.90;;;;;;8385353;28;19967;-72
2021/11/14 20:33:02;;;;;;;;;;;10.20;99.90;;;;;;8382456;28;19920;-72
2021/11/14 20:37:04;;;;;;;;;;;10.20;99.90;;;;;;8387739;28;19924;-72
2021/11/14 20:41:06;;;;;;;;;;;10.30;99.90;;;;;;8386139;28;19920;-72
2021/11/14 20:45:09;;;;;;;;;;;10.20;99.90;;;;;;8386077;28;20390;-72
2021/11/14 20:49:12;;;;;;;;;;;10.20;99.90;;;;;;8385567;28;19920;-72
2021/11/14 20:53:14;;;;;;;;;;;10.20;99.90;;;;;;8388562;28;19920;-71
2021/11/14 20:57:16;;;;;;;;;;;10.20;99.90;;;;;;8385062;28;19928;-72
2021/11/14 21:01:18;;;;;;;;;;;10.20;99.90;;;;;;8389834;28;19923;-72
2021/11/14 21:05:22;;;;;;;;;;;10.20;99.90;;;;;;8388901;28;20015;-71
2021/11/14 21:09:25;;;;;;;;;;;10.20;99.90;;;;;;8401269;28;19927;-73
2021/11/14 21:13:26;;;;;;;;;;;10.20;99.90;;;;;;8387463;28;20007;-72
2021/11/14 21:17:28;;;;;;;;;;;10.20;99.90;;;;;;8385815;28;20367;-72
2021/11/14 21:21:30;;;;;;;;;;;10.20;99.90;;;;;;8385474;28;20281;-72
2021/11/14 21:25:32;;;;;;;;;;;10.20;99.90;;;;;;8384051;28;19920;-72
2021/11/14 21:29:34;;;;;;;;;;;10.20;99.90;;;;;;8385646;28;19947;-71
2021/11/14 21:33:48;;;;;;;;;;;10.20;99.90;;;;;;8388368;28;19928;-72
2021/11/14 21:42:09;;;;;;;;;;;10.20;99.90;;;;;;8386988;28;19919;-72
2021/11/14 21:46:12;;;;;;;;;;;10.20;99.90;;;;;;8383268;28;19924;-73
2021/11/14 21:50:14;;;;;;;;;;;10.20;99.90;;;;;;8383771;28;19989;-72
2021/11/14 21:54:16;;;;;;;;;;;10.20;99.90;;;;;;8385406;28;19927;-72
2021/11/14 21:58:19;;;;;;;;;;;10.20;99.90;;;;;;8416394;27;19944;-72
2021/11/14 22:02:20;;;;;;;;;;;10.20;99.90;;;;;;8394405;28;19942;-72
2021/11/14 22:06:22;;;;;;;;;;;10.20;99.90;;;;;;8414840;28;19977;-72
2021/11/14 22:10:27;;;;;;;;;;;10.20;99.90;;;;;;8411414;28;19928;-72
2021/11/14 22:14:29;;;;;;;;;;;10.20;99.90;;;;;;8413393;28;19946;-72
2021/11/14 22:18:31;;;;;;;;;;;10.10;99.90;;;;;;8418738;28;20025;-72
2021/11/14 22:22:33;;;;;;;;;;;10.10;99.90;;;;;;8412922;28;19928;-71
2021/11/14 22:26:34;;;;;;;;;;;10.10;99.90;;;;;;8415585;28;19973;-72
2021/11/14 22:30:37;;;;;;;;;;;10.10;99.90;;;;;;8418518;28;20429;-71
2021/11/14 22:34:38;;;;;;;;;;;10.10;99.90;;;;;;8414732;28;19932;-72
2021/11/14 22:38:40;;;;;;;;;;;10.10;99.90;;;;;;8418222;28;19931;-72
2021/11/14 22:42:42;;;;;;;;;;;10.10;99.90;;;;;;8415773;28;19924;-71
2021/11/14 22:46:50;;;;;;;;;;;10.10;99.90;;;;;;8422570;28;20306;-72
2021/11/14 22:50:51;;;;;;;;;;;10.10;99.90;;;;;;8430590;28;20004;-72
2021/11/14 22:54:55;;;;;;;;;;;10.00;99.90;;;;;;8420837;28;19929;-72
2021/11/14 22:58:56;;;;;;;;;;;10.00;99.90;;;;;;8411619;28;19920;-73
2021/11/14 23:02:58;;;;;;;;;;;10.00;99.90;;;;;;8419316;28;19919;-73
2021/11/14 23:07:00;;;;;;;;;;;10.00;99.90;;;;;;8416828;28;19923;-72
2021/11/14 23:11:02;;;;;;;;;;;10.00;99.90;;;;;;8424803;28;19928;-72
2021/11/14 23:15:04;;;;;;;;;;;10.00;99.90;;;;;;8421736;28;19989;-72
2021/11/14 23:19:06;;;;;;;;;;;10.00;99.90;;;;;;8419578;28;19928;-72
2021/11/14 23:23:08;;;;;;;;;;;10.00;99.90;;;;;;8423008;28;19920;-71
2021/11/14 23:27:10;;;;;;;;;;;10.00;99.90;;;;;;8422758;28;20116;-72
2021/11/14 23:31:12;;;;;;;;;;;10.00;99.90;;;;;;8412420;28;19931;-71